sensor_id;sensor_type;location;lat;lon;timestamp;temperature;humidity
10213;DHT22;5150;51.400;6.692;2022-10-16T00:03:08;19.50;1.00
10213;DHT22;5150;51.400;6.692;2022-10-16T00:06:31;19.50;1.00
10213;DHT22;5150;51.400;6.692;2022-10-16T00:09:55;19.50;1.00
10213;DHT22;5150;51.400;6.692;2022-10-16T00:13:19;19.50;1.00
10213;DHT22;5150;51.400;6.692;2022-10-16T00:16:42;19.50;1.00
10213;DHT22;5150;51.400;6.692;2022-10-16T00:20:06;19.50;1.00
10213;DHT22;5150;51.400;6.692;2022-10-16T00:23:29;19.50;1.00
10213;DHT22;5150;51.400;6.692;2022-10-16T00:26:54;19.50;1.00
10213;DHT22;5150;51.400;6.692;2022-10-16T00:30:17;19.50;1.00
10213;DHT22;5150;51.400;6.692;2022-10-16T00:33:40;19.50;1.00
10213;DHT22;5150;51.400;6.692;2022-10-16T00:37:03;19.50;1.00
10213;DHT22;5150;51.400;6.692;2022-10-16T00:40:26;19.50;1.00
10213;DHT22;5150;51.400;6.692;2022-10-16T00:43:54;19.50;1.00
10213;DHT22;5150;51.400;6.692;2022-10-16T00:47:21;19.50;1.00
10213;DHT22;5150;51.400;6.692;2022-10-16T00:50:45;19.50;1.00
10213;DHT22;5150;51.400;6.692;2022-10-16T00:54:11;19.50;1.00
10213;DHT22;5150;51.400;6.692;2022-10-16T00:57:34;19.50;1.00
10213;DHT22;5150;51.400;6.692;2022-10-16T01:00:59;19.40;1.00
10213;DHT22;5150;51.400;6.692;2022-10-16T01:04:23;19.50;1.00
10213;DHT22;5150;51.400;6.692;2022-10-16T01:07:56;19.40;1.00
10213;DHT22;5150;51.400;6.692;2022-10-16T01:11:24;19.40;1.00
10213;DHT22;5150;51.400;6.692;2022-10-16T01:14:53;19.40;1.00
10213;DHT22;5150;51.400;6.692;2022-10-16T01:18:23;19.40;1.00
10213;DHT22;5150;51.400;6.692;2022-10-16T01:21:51;19.40;1.00
10213;DHT22;5150;51.400;6.692;2022-10-16T01:25:20;19.40;1.00
10213;DHT22;5150;51.400;6.692;2022-10-16T01:28:51;19.40;1.00
10213;DHT22;5150;51.400;6.692;2022-10-16T01:32:18;19.40;1.00
10213;DHT22;5150;51.400;6.692;2022-10-16T01:35:46;19.40;1.00
10213;DHT22;5150;51.400;6.692;2022-10-16T01:39:10;19.40;1.00
10213;DHT22;5150;51.400;6.692;2022-10-16T01:42:36;19.40;1.00
10213;DHT22;5150;51.400;6.692;2022-10-16T01:46:03;19.40;1.00
10213;DHT22;5150;51.400;6.692;2022-10-16T01:49:29;19.40;1.00
10213;DHT22;5150;51.400;6.692;2022-10-16T01:52:55;19.40;1.00
10213;DHT22;5150;51.400;6.692;2022-10-16T01:56:20;19.40;1.00
10213;DHT22;5150;51.400;6.692;2022-10-16T01:59:47;19.40;1.00
10213;DHT22;5150;51.400;6.692;2022-10-16T02:03:15;19.40;1.00
10213;DHT22;5150;51.400;6.692;2022-10-16T02:06:39;19.40;1.00
10213;DHT22;5150;51.400;6.692;2022-10-16T02:10:02;19.40;1.00
10213;DHT22;5150;51.400;6.692;2022-10-16T02:13:29;19.40;1.00
10213;DHT22;5150;51.400;6.692;2022-10-16T02:16:54;19.40;1.00
10213;DHT22;5150;51.400;6.692;2022-10-16T02:20:22;19.40;1.00
10213;DHT22;5150;51.400;6.692;2022-10-16T02:23:51;19.40;1.00
10213;DHT22;5150;51.400;6.692;2022-10-16T02:27:23;19.40;1.00
10213;DHT22;5150;51.400;6.692;2022-10-16T02:30:50;19.40;1.00
10213;DHT22;5150;51.400;6.692;2022-10-16T02:34:16;19.40;1.00
10213;DHT22;5150;51.400;6.692;2022-10-16T02:37:41;19.40;1.00
10213;DHT22;5150;51.400;6.692;2022-10-16T02:41:05;19.40;1.00
10213;DHT22;5150;51.400;6.692;2022-10-16T02:44:28;19.40;1.00
10213;DHT22;5150;51.400;6.692;2022-10-16T02:47:51;19.40;1.00
10213;DHT22;5150;51.400;6.692;2022-10-16T02:51:14;19.40;1.00
10213;DHT22;5150;51.400;6.692;2022-10-16T02:54:38;19.40;1.00
10213;DHT22;5150;51.400;6.692;2022-10-16T02:58:01;19.40;1.00
10213;DHT22;5150;51.400;6.692;2022-10-16T03:01:24;19.40;1.00
10213;DHT22;5150;51.400;6.692;2022-10-16T03:04:47;19.40;1.00
10213;DHT22;5150;51.400;6.692;2022-10-16T03:08:10;19.40;1.00
10213;DHT22;5150;51.400;6.692;2022-10-16T03:11:35;19.40;1.00
10213;DHT22;5150;51.400;6.692;2022-10-16T03:14:58;19.40;1.00
10213;DHT22;5150;51.400;6.692;2022-10-16T03:18:21;19.40;1.00
10213;DHT22;5150;51.400;6.692;2022-10-16T03:21:44;19.40;1.00
10213;DHT22;5150;51.400;6.692;2022-10-16T03:25:07;19.40;1.00
10213;DHT22;5150;51.400;6.692;2022-10-16T03:28:32;19.40;1.00
10213;DHT22;5150;51.400;6.692;2022-10-16T03:31:55;19.40;1.00
10213;DHT22;5150;51.400;6.692;2022-10-16T03:35:18;19.40;1.00
10213;DHT22;5150;51.400;6.692;2022-10-16T03:38:40;19.40;1.00
10213;DHT22;5150;51.400;6.692;2022-10-16T03:42:03;19.30;1.00
10213;DHT22;5150;51.400;6.692;2022-10-16T03:45:28;19.30;1.00
10213;DHT22;5150;51.400;6.692;2022-10-16T03:48:51;19.40;1.00
10213;DHT22;5150;51.400;6.692;2022-10-16T03:52:14;19.30;1.00
10213;DHT22;5150;51.400;6.692;2022-10-16T03:55:36;19.30;1.00
10213;DHT22;5150;51.400;6.692;2022-10-16T03:58:59;19.30;1.00
10213;DHT22;5150;51.400;6.692;2022-10-16T04:02:24;19.40;1.00
10213;DHT22;5150;51.400;6.692;2022-10-16T04:05:47;19.40;1.00
10213;DHT22;5150;51.400;6.692;2022-10-16T04:09:10;19.30;1.00
10213;DHT22;5150;51.400;6.692;2022-10-16T04:12:33;19.30;1.00
10213;DHT22;5150;51.400;6.692;2022-10-16T04:15:55;19.30;1.00
10213;DHT22;5150;51.400;6.692;2022-10-16T04:19:20;19.30;1.00
10213;DHT22;5150;51.400;6.692;2022-10-16T04:22:43;19.30;1.00
10213;DHT22;5150;51.400;6.692;2022-10-16T04:26:06;19.30;1.00
10213;DHT22;5150;51.400;6.692;2022-10-16T04:29:29;19.30;1.00
10213;DHT22;5150;51.400;6.692;2022-10-16T04:32:52;19.30;1.00
10213;DHT22;5150;51.400;6.692;2022-10-16T04:36:17;19.30;1.00
10213;DHT22;5150;51.400;6.692;2022-10-16T04:39:39;19.30;1.00
10213;DHT22;5150;51.400;6.692;2022-10-16T04:43:03;19.30;1.00
10213;DHT22;5150;51.400;6.692;2022-10-16T04:46:26;19.40;1.00
10213;DHT22;5150;51.400;6.692;2022-10-16T04:49:49;19.30;1.00
10213;DHT22;5150;51.400;6.692;2022-10-16T04:53:13;19.30;1.00
10213;DHT22;5150;51.400;6.692;2022-10-16T04:56:36;19.30;1.00
10213;DHT22;5150;51.400;6.692;2022-10-16T05:00:06;19.30;1.00
10213;DHT22;5150;51.400;6.692;2022-10-16T05:03:29;19.30;1.00
10213;DHT22;5150;51.400;6.692;2022-10-16T05:06:52;19.30;1.00
10213;DHT22;5150;51.400;6.692;2022-10-16T05:10:17;19.30;1.00
10213;DHT22;5150;51.400;6.692;2022-10-16T05:13:40;19.30;1.00
10213;DHT22;5150;51.400;6.692;2022-10-16T05:17:02;19.30;1.00
10213;DHT22;5150;51.400;6.692;2022-10-16T05:20:25;19.30;1.00
10213;DHT22;5150;51.400;6.692;2022-10-16T05:23:48;19.30;1.00
10213;DHT22;5150;51.400;6.692;2022-10-16T05:27:13;19.30;1.00
10213;DHT22;5150;51.400;6.692;2022-10-16T05:30:40;19.30;1.00
10213;DHT22;5150;51.400;6.692;2022-10-16T05:34:03;19.30;1.00
10213;DHT22;5150;51.400;6.692;2022-10-16T05:37:27;19.30;1.00
10213;DHT22;5150;51.400;6.692;2022-10-16T05:40:51;19.30;1.00
10213;DHT22;5150;51.400;6.692;2022-10-16T05:44:16;19.30;1.00
10213;DHT22;5150;51.400;6.692;2022-10-16T05:47:39;19.30;1.00
10213;DHT22;5150;51.400;6.692;2022-10-16T05:51:04;19.30;1.00
10213;DHT22;5150;51.400;6.692;2022-10-16T05:54:28;19.30;1.00
10213;DHT22;5150;51.400;6.692;2022-10-16T05:57:56;19.30;1.00
10213;DHT22;5150;51.400;6.692;2022-10-16T06:01:20;19.20;1.00
10213;DHT22;5150;51.400;6.692;2022-10-16T06:04:45;19.20;1.00
10213;DHT22;5150;51.400;6.692;2022-10-16T06:08:08;19.20;1.00
10213;DHT22;5150;51.400;6.692;2022-10-16T06:11:32;19.20;1.00
10213;DHT22;5150;51.400;6.692;2022-10-16T06:14:55;19.20;1.00
10213;DHT22;5150;51.400;6.692;2022-10-16T06:18:19;19.20;1.00
10213;DHT22;5150;51.400;6.692;2022-10-16T06:21:43;19.20;1.00
10213;DHT22;5150;51.400;6.692;2022-10-16T06:25:06;19.20;1.00
10213;DHT22;5150;51.400;6.692;2022-10-16T06:28:29;19.20;1.00
10213;DHT22;5150;51.400;6.692;2022-10-16T06:31:52;19.20;1.00
10213;DHT22;5150;51.400;6.692;2022-10-16T06:35:17;19.20;1.00
10213;DHT22;5150;51.400;6.692;2022-10-16T06:38:40;19.20;1.00
10213;DHT22;5150;51.400;6.692;2022-10-16T06:42:03;19.30;1.00
10213;DHT22;5150;51.400;6.692;2022-10-16T06:45:30;19.30;1.00
10213;DHT22;5150;51.400;6.692;2022-10-16T06:48:53;19.20;1.00
10213;DHT22;5150;51.400;6.692;2022-10-16T06:52:17;19.20;1.00
10213;DHT22;5150;51.400;6.692;2022-10-16T06:55:40;19.20;1.00
10213;DHT22;5150;51.400;6.692;2022-10-16T06:59:03;19.20;1.00
10213;DHT22;5150;51.400;6.692;2022-10-16T07:02:26;19.30;1.00
10213;DHT22;5150;51.400;6.692;2022-10-16T07:05:50;19.20;1.00
10213;DHT22;5150;51.400;6.692;2022-10-16T07:09:14;19.20;1.00
10213;DHT22;5150;51.400;6.692;2022-10-16T07:12:37;19.20;1.00
10213;DHT22;5150;51.400;6.692;2022-10-16T07:16:04;19.20;1.00
10213;DHT22;5150;51.400;6.692;2022-10-16T07:19:27;19.20;1.00
10213;DHT22;5150;51.400;6.692;2022-10-16T07:22:55;19.20;1.00
10213;DHT22;5150;51.400;6.692;2022-10-16T07:26:19;19.20;1.00
10213;DHT22;5150;51.400;6.692;2022-10-16T07:29:42;19.20;1.00
10213;DHT22;5150;51.400;6.692;2022-10-16T07:33:05;19.20;1.00
10213;DHT22;5150;51.400;6.692;2022-10-16T07:36:28;19.20;1.00
10213;DHT22;5150;51.400;6.692;2022-10-16T07:39:51;19.20;1.00
10213;DHT22;5150;51.400;6.692;2022-10-16T07:43:16;19.30;1.00
10213;DHT22;5150;51.400;6.692;2022-10-16T07:46:39;19.30;1.00
10213;DHT22;5150;51.400;6.692;2022-10-16T07:50:02;19.30;1.00
10213;DHT22;5150;51.400;6.692;2022-10-16T07:53:25;19.30;1.00
10213;DHT22;5150;51.400;6.692;2022-10-16T07:56:48;19.30;1.00
10213;DHT22;5150;51.400;6.692;2022-10-16T08:00:13;19.30;1.00
10213;DHT22;5150;51.400;6.692;2022-10-16T08:03:36;19.30;1.00
10213;DHT22;5150;51.400;6.692;2022-10-16T08:06:59;19.30;1.00
10213;DHT22;5150;51.400;6.692;2022-10-16T08:10:24;19.60;1.00
10213;DHT22;5150;51.400;6.692;2022-10-16T08:13:47;19.80;1.00
10213;DHT22;5150;51.400;6.692;2022-10-16T08:17:13;20.10;99.90
10213;DHT22;5150;51.400;6.692;2022-10-16T08:20:36;20.40;99.90
10213;DHT22;5150;51.400;6.692;2022-10-16T08:23:59;20.60;99.90
10213;DHT22;5150;51.400;6.692;2022-10-16T08:27:22;20.90;99.90
10213;DHT22;5150;51.400;6.692;2022-10-16T08:30:46;21.00;99.90
10213;DHT22;5150;51.400;6.692;2022-10-16T08:34:10;21.10;99.90
10213;DHT22;5150;51.400;6.692;2022-10-16T08:37:33;21.20;99.90
10213;DHT22;5150;51.400;6.692;2022-10-16T08:41:08;21.20;99.90
10213;DHT22;5150;51.400;6.692;2022-10-16T08:48:20;21.60;99.90
10213;DHT22;5150;51.400;6.692;2022-10-16T08:51:47;21.70;95.10
10213;DHT22;5150;51.400;6.692;2022-10-16T08:55:29;21.70;93.60
10213;DHT22;5150;51.400;6.692;2022-10-16T08:58:54;21.70;98.00
10213;DHT22;5150;51.400;6.692;2022-10-16T09:02:31;21.60;99.90
10213;DHT22;5150;51.400;6.692;2022-10-16T09:06:05;21.60;99.90
10213;DHT22;5150;51.400;6.692;2022-10-16T09:09:47;21.50;99.90
10213;DHT22;5150;51.400;6.692;2022-10-16T09:13:21;21.40;99.90
10213;DHT22;5150;51.400;6.692;2022-10-16T09:16:51;21.30;99.90
10213;DHT22;5150;51.400;6.692;2022-10-16T09:20:30;21.30;99.90
10213;DHT22;5150;51.400;6.692;2022-10-16T09:23:57;21.30;99.90
10213;DHT22;5150;51.400;6.692;2022-10-16T09:27:23;21.20;99.90
10213;DHT22;5150;51.400;6.692;2022-10-16T09:30:47;21.10;99.90
10213;DHT22;5150;51.400;6.692;2022-10-16T09:34:17;21.10;99.90
10213;DHT22;5150;51.400;6.692;2022-10-16T09:37:45;21.00;99.90
10213;DHT22;5150;51.400;6.692;2022-10-16T09:41:16;21.00;99.90
10213;DHT22;5150;51.400;6.692;2022-10-16T09:44:41;21.00;99.90
10213;DHT22;5150;51.400;6.692;2022-10-16T09:48:11;21.00;99.90
10213;DHT22;5150;51.400;6.692;2022-10-16T09:51:35;21.00;99.90
10213;DHT22;5150;51.400;6.692;2022-10-16T09:55:00;21.00;99.90
10213;DHT22;5150;51.400;6.692;2022-10-16T09:58:23;21.10;99.90
10213;DHT22;5150;51.400;6.692;2022-10-16T10:01:49;21.20;99.90
10213;DHT22;5150;51.400;6.692;2022-10-16T10:05:21;21.20;99.90
10213;DHT22;5150;51.400;6.692;2022-10-16T10:08:56;21.30;99.90
10213;DHT22;5150;51.400;6.692;2022-10-16T10:12:21;21.40;99.90
10213;DHT22;5150;51.400;6.692;2022-10-16T10:15:48;21.50;99.90
10213;DHT22;5150;51.400;6.692;2022-10-16T10:19:16;21.60;99.90
10213;DHT22;5150;51.400;6.692;2022-10-16T10:22:40;21.70;98.10
10213;DHT22;5150;51.400;6.692;2022-10-16T10:26:08;21.70;93.70
10213;DHT22;5150;51.400;6.692;2022-10-16T10:29:43;21.70;92.30
10213;DHT22;5150;51.400;6.692;2022-10-16T10:33:18;21.70;88.00
10213;DHT22;5150;51.400;6.692;2022-10-16T10:36:49;21.70;81.90
10213;DHT22;5150;51.400;6.692;2022-10-16T10:40:27;21.80;80.00
10213;DHT22;5150;51.400;6.692;2022-10-16T10:44:00;21.80;73.80
10213;DHT22;5150;51.400;6.692;2022-10-16T10:47:31;21.80;64.50
10213;DHT22;5150;51.400;6.692;2022-10-16T10:51:02;21.80;56.90
10213;DHT22;5150;51.400;6.692;2022-10-16T10:54:34;21.90;48.90
10213;DHT22;5150;51.400;6.692;2022-10-16T10:58:19;22.00;33.80
10213;DHT22;5150;51.400;6.692;2022-10-16T11:01:50;22.00;19.20
10213;DHT22;5150;51.400;6.692;2022-10-16T11:05:30;22.30;1.00
10213;DHT22;5150;51.400;6.692;2022-10-16T11:08:59;22.70;1.00
10213;DHT22;5150;51.400;6.692;2022-10-16T11:12:27;23.20;1.00
10213;DHT22;5150;51.400;6.692;2022-10-16T11:15:55;23.50;1.00
10213;DHT22;5150;51.400;6.692;2022-10-16T11:19:26;23.90;1.00
10213;DHT22;5150;51.400;6.692;2022-10-16T11:22:53;23.90;1.00
10213;DHT22;5150;51.400;6.692;2022-10-16T11:26:20;24.10;1.00
10213;DHT22;5150;51.400;6.692;2022-10-16T11:29:51;24.40;1.00
10213;DHT22;5150;51.400;6.692;2022-10-16T11:33:27;24.60;1.00
10213;DHT22;5150;51.400;6.692;2022-10-16T11:36:56;24.60;1.00
10213;DHT22;5150;51.400;6.692;2022-10-16T11:40:24;24.70;1.00
10213;DHT22;5150;51.400;6.692;2022-10-16T11:44:08;24.60;1.00
10213;DHT22;5150;51.400;6.692;2022-10-16T11:47:34;24.60;1.00
10213;DHT22;5150;51.400;6.692;2022-10-16T11:51:23;24.60;1.00
10213;DHT22;5150;51.400;6.692;2022-10-16T11:54:51;24.40;1.00
10213;DHT22;5150;51.400;6.692;2022-10-16T11:58:22;24.20;1.00
10213;DHT22;5150;51.400;6.692;2022-10-16T12:01:50;24.00;1.00
10213;DHT22;5150;51.400;6.692;2022-10-16T12:05:23;23.90;1.00
10213;DHT22;5150;51.400;6.692;2022-10-16T12:08:48;23.80;1.00
10213;DHT22;5150;51.400;6.692;2022-10-16T12:12:25;23.70;1.00
10213;DHT22;5150;51.400;6.692;2022-10-16T12:15:52;23.90;1.00
10213;DHT22;5150;51.400;6.692;2022-10-16T12:19:27;23.70;1.00
10213;DHT22;5150;51.400;6.692;2022-10-16T12:22:54;23.50;1.00
10213;DHT22;5150;51.400;6.692;2022-10-16T12:26:25;23.20;1.00
10213;DHT22;5150;51.400;6.692;2022-10-16T12:29:54;23.00;1.00
10213;DHT22;5150;51.400;6.692;2022-10-16T12:33:21;22.90;1.00
10213;DHT22;5150;51.400;6.692;2022-10-16T12:36:45;22.90;1.00
10213;DHT22;5150;51.400;6.692;2022-10-16T12:40:15;22.80;1.00
10213;DHT22;5150;51.400;6.692;2022-10-16T12:43:40;22.80;1.00
10213;DHT22;5150;51.400;6.692;2022-10-16T12:47:18;22.90;1.00
10213;DHT22;5150;51.400;6.692;2022-10-16T12:50:41;22.90;1.00
10213;DHT22;5150;51.400;6.692;2022-10-16T12:54:11;22.90;1.00
10213;DHT22;5150;51.400;6.692;2022-10-16T12:57:55;23.00;1.00
10213;DHT22;5150;51.400;6.692;2022-10-16T13:01:41;23.10;1.00
10213;DHT22;5150;51.400;6.692;2022-10-16T13:05:16;23.10;1.00
10213;DHT22;5150;51.400;6.692;2022-10-16T13:09:04;23.00;1.00
10213;DHT22;5150;51.400;6.692;2022-10-16T13:12:49;22.90;1.00
10213;DHT22;5150;51.400;6.692;2022-10-16T13:16:22;22.90;1.00
10213;DHT22;5150;51.400;6.692;2022-10-16T13:19:52;23.00;1.00
10213;DHT22;5150;51.400;6.692;2022-10-16T13:23:24;23.00;1.00
10213;DHT22;5150;51.400;6.692;2022-10-16T13:26:52;23.00;1.00
10213;DHT22;5150;51.400;6.692;2022-10-16T13:30:21;23.00;1.00
10213;DHT22;5150;51.400;6.692;2022-10-16T13:33:53;23.00;1.00
10213;DHT22;5150;51.400;6.692;2022-10-16T13:37:17;23.00;1.00
10213;DHT22;5150;51.400;6.692;2022-10-16T13:40:55;22.90;1.00
10213;DHT22;5150;51.400;6.692;2022-10-16T13:44:20;22.80;1.00
10213;DHT22;5150;51.400;6.692;2022-10-16T13:47:44;22.70;1.00
10213;DHT22;5150;51.400;6.692;2022-10-16T13:51:12;22.60;1.00
10213;DHT22;5150;51.400;6.692;2022-10-16T13:54:36;22.60;1.00
10213;DHT22;5150;51.400;6.692;2022-10-16T13:58:05;22.70;1.00
10213;DHT22;5150;51.400;6.692;2022-10-16T14:01:30;22.60;1.00
10213;DHT22;5150;51.400;6.692;2022-10-16T14:04:56;22.60;1.00
10213;DHT22;5150;51.400;6.692;2022-10-16T14:08:20;22.70;1.00
10213;DHT22;5150;51.400;6.692;2022-10-16T14:11:47;22.70;1.00
10213;DHT22;5150;51.400;6.692;2022-10-16T14:15:17;22.70;1.00
10213;DHT22;5150;51.400;6.692;2022-10-16T14:18:40;22.60;1.00
10213;DHT22;5150;51.400;6.692;2022-10-16T14:22:26;22.60;1.00
10213;DHT22;5150;51.400;6.692;2022-10-16T14:25:51;22.50;1.00
10213;DHT22;5150;51.400;6.692;2022-10-16T14:29:18;22.40;1.00
10213;DHT22;5150;51.400;6.692;2022-10-16T14:32:42;22.40;1.00
10213;DHT22;5150;51.400;6.692;2022-10-16T14:36:16;22.30;1.00
10213;DHT22;5150;51.400;6.692;2022-10-16T14:39:42;22.30;1.00
10213;DHT22;5150;51.400;6.692;2022-10-16T14:43:05;22.20;1.00
10213;DHT22;5150;51.400;6.692;2022-10-16T14:46:31;22.20;1.00
10213;DHT22;5150;51.400;6.692;2022-10-16T14:49:55;22.20;1.00
10213;DHT22;5150;51.400;6.692;2022-10-16T14:53:20;22.20;1.00
10213;DHT22;5150;51.400;6.692;2022-10-16T14:56:48;22.10;1.00
10213;DHT22;5150;51.400;6.692;2022-10-16T15:00:17;22.10;1.00
10213;DHT22;5150;51.400;6.692;2022-10-16T15:03:40;22.10;1.00
10213;DHT22;5150;51.400;6.692;2022-10-16T15:07:04;22.00;1.00
10213;DHT22;5150;51.400;6.692;2022-10-16T15:10:27;21.90;1.00
10213;DHT22;5150;51.400;6.692;2022-10-16T15:13:52;21.90;1.00
10213;DHT22;5150;51.400;6.692;2022-10-16T15:17:15;21.90;1.00
10213;DHT22;5150;51.400;6.692;2022-10-16T15:20:42;21.90;1.00
10213;DHT22;5150;51.400;6.692;2022-10-16T15:24:11;21.80;1.00
10213;DHT22;5150;51.400;6.692;2022-10-16T15:27:40;21.80;1.00
10213;DHT22;5150;51.400;6.692;2022-10-16T15:31:04;21.80;1.00
10213;DHT22;5150;51.400;6.692;2022-10-16T15:34:27;21.80;1.00
10213;DHT22;5150;51.400;6.692;2022-10-16T15:37:50;21.80;1.00
10213;DHT22;5150;51.400;6.692;2022-10-16T15:41:14;21.80;1.00
10213;DHT22;5150;51.400;6.692;2022-10-16T15:44:37;21.80;1.00
10213;DHT22;5150;51.400;6.692;2022-10-16T15:48:01;21.80;1.00
10213;DHT22;5150;51.400;6.692;2022-10-16T15:51:25;21.70;1.00
10213;DHT22;5150;51.400;6.692;2022-10-16T15:54:50;21.70;1.00
10213;DHT22;5150;51.400;6.692;2022-10-16T15:58:15;21.70;1.00
10213;DHT22;5150;51.400;6.692;2022-10-16T16:01:39;21.70;1.00
10213;DHT22;5150;51.400;6.692;2022-10-16T16:05:05;21.70;1.00
10213;DHT22;5150;51.400;6.692;2022-10-16T16:08:29;21.70;1.00
10213;DHT22;5150;51.400;6.692;2022-10-16T16:11:52;21.60;1.00
10213;DHT22;5150;51.400;6.692;2022-10-16T16:15:15;21.60;1.00
10213;DHT22;5150;51.400;6.692;2022-10-16T16:18:39;21.60;1.00
10213;DHT22;5150;51.400;6.692;2022-10-16T16:22:04;21.60;1.00
10213;DHT22;5150;51.400;6.692;2022-10-16T16:25:33;21.60;1.00
10213;DHT22;5150;51.400;6.692;2022-10-16T16:28:57;21.60;1.00
10213;DHT22;5150;51.400;6.692;2022-10-16T16:32:21;21.50;1.00
10213;DHT22;5150;51.400;6.692;2022-10-16T16:35:44;21.50;1.00
10213;DHT22;5150;51.400;6.692;2022-10-16T16:39:09;21.50;1.00
10213;DHT22;5150;51.400;6.692;2022-10-16T16:42:33;21.50;2.40
10213;DHT22;5150;51.400;6.692;2022-10-16T16:46:01;21.50;5.60
10213;DHT22;5150;51.400;6.692;2022-10-16T16:49:24;21.50;8.60
10213;DHT22;5150;51.400;6.692;2022-10-16T16:52:47;21.40;12.40
10213;DHT22;5150;51.400;6.692;2022-10-16T16:56:12;21.40;15.10
10213;DHT22;5150;51.400;6.692;2022-10-16T16:59:35;21.40;16.70
10213;DHT22;5150;51.400;6.692;2022-10-16T17:02:59;21.40;19.30
10213;DHT22;5150;51.400;6.692;2022-10-16T17:06:26;21.40;37.50
10213;DHT22;5150;51.400;6.692;2022-10-16T17:09:51;21.40;25.80
10213;DHT22;5150;51.400;6.692;2022-10-16T17:13:16;21.40;28.50
10213;DHT22;5150;51.400;6.692;2022-10-16T17:16:40;21.30;30.70
10213;DHT22;5150;51.400;6.692;2022-10-16T17:20:06;21.30;36.30
10213;DHT22;5150;51.400;6.692;2022-10-16T17:23:31;21.30;43.30
10213;DHT22;5150;51.400;6.692;2022-10-16T17:26:54;21.30;48.70
10213;DHT22;5150;51.400;6.692;2022-10-16T17:30:18;21.30;57.30
10213;DHT22;5150;51.400;6.692;2022-10-16T17:33:42;21.30;67.00
10213;DHT22;5150;51.400;6.692;2022-10-16T17:37:05;21.30;75.70
10213;DHT22;5150;51.400;6.692;2022-10-16T17:40:28;21.30;84.00
10213;DHT22;5150;51.400;6.692;2022-10-16T17:43:51;21.20;90.10
10213;DHT22;5150;51.400;6.692;2022-10-16T17:47:15;21.20;94.10
10213;DHT22;5150;51.400;6.692;2022-10-16T17:50:39;21.20;98.00
10213;DHT22;5150;51.400;6.692;2022-10-16T17:54:02;21.20;99.90
10213;DHT22;5150;51.400;6.692;2022-10-16T17:57:25;21.20;99.90
10213;DHT22;5150;51.400;6.692;2022-10-16T18:00:48;21.10;99.90
10213;DHT22;5150;51.400;6.692;2022-10-16T18:04:15;21.10;99.90
10213;DHT22;5150;51.400;6.692;2022-10-16T18:07:38;21.10;99.90
10213;DHT22;5150;51.400;6.692;2022-10-16T18:11:03;21.10;99.90
10213;DHT22;5150;51.400;6.692;2022-10-16T18:14:26;21.00;99.90
10213;DHT22;5150;51.400;6.692;2022-10-16T18:17:50;21.10;99.90
10213;DHT22;5150;51.400;6.692;2022-10-16T18:21:16;21.00;99.90
10213;DHT22;5150;51.400;6.692;2022-10-16T18:24:39;21.00;99.90
10213;DHT22;5150;51.400;6.692;2022-10-16T18:28:02;21.00;99.90
10213;DHT22;5150;51.400;6.692;2022-10-16T18:31:27;21.00;99.90
10213;DHT22;5150;51.400;6.692;2022-10-16T18:34:51;21.00;99.90
10213;DHT22;5150;51.400;6.692;2022-10-16T18:38:16;20.90;99.90
10213;DHT22;5150;51.400;6.692;2022-10-16T18:41:40;20.90;99.90
10213;DHT22;5150;51.400;6.692;2022-10-16T18:45:06;20.90;99.90
10213;DHT22;5150;51.400;6.692;2022-10-16T18:48:30;20.90;99.90
10213;DHT22;5150;51.400;6.692;2022-10-16T18:51:53;20.90;99.90
10213;DHT22;5150;51.400;6.692;2022-10-16T18:55:19;20.80;99.90
10213;DHT22;5150;51.400;6.692;2022-10-16T18:58:47;20.80;99.90
10213;DHT22;5150;51.400;6.692;2022-10-16T19:02:11;20.80;99.90
10213;DHT22;5150;51.400;6.692;2022-10-16T19:05:34;20.80;99.90
10213;DHT22;5150;51.400;6.692;2022-10-16T19:08:57;20.80;99.90
10213;DHT22;5150;51.400;6.692;2022-10-16T19:12:21;20.80;99.90
10213;DHT22;5150;51.400;6.692;2022-10-16T19:15:45;20.80;99.90
10213;DHT22;5150;51.400;6.692;2022-10-16T19:19:19;20.70;99.90
10213;DHT22;5150;51.400;6.692;2022-10-16T19:22:44;20.70;99.90
10213;DHT22;5150;51.400;6.692;2022-10-16T19:26:15;20.70;99.90
10213;DHT22;5150;51.400;6.692;2022-10-16T19:29:40;20.70;99.90
10213;DHT22;5150;51.400;6.692;2022-10-16T19:33:04;20.70;99.90
10213;DHT22;5150;51.400;6.692;2022-10-16T19:36:28;20.70;99.90
10213;DHT22;5150;51.400;6.692;2022-10-16T19:39:51;20.70;99.90
10213;DHT22;5150;51.400;6.692;2022-10-16T19:43:14;20.70;99.90
10213;DHT22;5150;51.400;6.692;2022-10-16T19:46:39;20.70;99.90
10213;DHT22;5150;51.400;6.692;2022-10-16T19:50:03;20.70;99.90
10213;DHT22;5150;51.400;6.692;2022-10-16T19:53:27;20.70;99.90
10213;DHT22;5150;51.400;6.692;2022-10-16T19:56:50;20.60;99.90
10213;DHT22;5150;51.400;6.692;2022-10-16T20:00:14;20.60;99.90
10213;DHT22;5150;51.400;6.692;2022-10-16T20:03:40;20.60;99.90
10213;DHT22;5150;51.400;6.692;2022-10-16T20:07:06;20.60;99.90
10213;DHT22;5150;51.400;6.692;2022-10-16T20:10:31;20.60;99.90
10213;DHT22;5150;51.400;6.692;2022-10-16T20:13:55;20.60;99.90
10213;DHT22;5150;51.400;6.692;2022-10-16T20:17:19;20.60;99.90
10213;DHT22;5150;51.400;6.692;2022-10-16T20:20:45;20.50;99.90
10213;DHT22;5150;51.400;6.692;2022-10-16T20:24:09;20.50;99.90
10213;DHT22;5150;51.400;6.692;2022-10-16T20:27:33;20.50;99.90
10213;DHT22;5150;51.400;6.692;2022-10-16T20:30:56;20.50;99.90
10213;DHT22;5150;51.400;6.692;2022-10-16T20:34:19;20.50;99.90
10213;DHT22;5150;51.400;6.692;2022-10-16T20:37:43;20.50;99.90
10213;DHT22;5150;51.400;6.692;2022-10-16T20:41:09;20.50;99.90
10213;DHT22;5150;51.400;6.692;2022-10-16T20:44:33;20.50;99.90
10213;DHT22;5150;51.400;6.692;2022-10-16T20:47:56;20.50;99.90
10213;DHT22;5150;51.400;6.692;2022-10-16T20:51:22;20.50;99.90
10213;DHT22;5150;51.400;6.692;2022-10-16T20:54:46;20.50;99.90
10213;DHT22;5150;51.400;6.692;2022-10-16T20:58:10;20.50;1.00
10213;DHT22;5150;51.400;6.692;2022-10-16T21:01:34;20.50;1.00
10213;DHT22;5150;51.400;6.692;2022-10-16T21:04:57;20.50;1.00
10213;DHT22;5150;51.400;6.692;2022-10-16T21:08:20;20.50;1.00
10213;DHT22;5150;51.400;6.692;2022-10-16T21:11:44;20.50;1.00
10213;DHT22;5150;51.400;6.692;2022-10-16T21:15:08;20.50;1.00
10213;DHT22;5150;51.400;6.692;2022-10-16T21:18:37;20.50;1.00
10213;DHT22;5150;51.400;6.692;2022-10-16T21:22:05;20.50;1.00
10213;DHT22;5150;51.400;6.692;2022-10-16T21:25:28;20.50;1.00
10213;DHT22;5150;51.400;6.692;2022-10-16T21:28:54;20.50;1.00
10213;DHT22;5150;51.400;6.692;2022-10-16T21:32:18;20.50;1.00
10213;DHT22;5150;51.400;6.692;2022-10-16T21:35:41;20.50;1.00
10213;DHT22;5150;51.400;6.692;2022-10-16T21:39:06;20.50;1.00
10213;DHT22;5150;51.400;6.692;2022-10-16T21:42:30;20.40;1.00
10213;DHT22;5150;51.400;6.692;2022-10-16T21:45:54;20.40;1.00
10213;DHT22;5150;51.400;6.692;2022-10-16T21:49:18;20.40;1.00
10213;DHT22;5150;51.400;6.692;2022-10-16T21:52:43;20.40;1.00
10213;DHT22;5150;51.400;6.692;2022-10-16T21:56:15;20.40;1.00
10213;DHT22;5150;51.400;6.692;2022-10-16T21:59:38;20.40;1.00
10213;DHT22;5150;51.400;6.692;2022-10-16T22:03:02;20.40;1.00
10213;DHT22;5150;51.400;6.692;2022-10-16T22:06:27;20.40;1.00
10213;DHT22;5150;51.400;6.692;2022-10-16T22:09:50;20.40;1.00
10213;DHT22;5150;51.400;6.692;2022-10-16T22:13:13;20.40;1.00
10213;DHT22;5150;51.400;6.692;2022-10-16T22:16:37;20.40;1.00
10213;DHT22;5150;51.400;6.692;2022-10-16T22:20:04;20.40;1.00
10213;DHT22;5150;51.400;6.692;2022-10-16T22:23:27;20.40;1.00